createdAt,value
2022-11-10T07:57:13.123Z,85.70
2022-11-10T07:59:59.419Z,86.30
2022-11-10T08:02:45.486Z,87.10
2022-11-10T08:05:32.224Z,86.20
2022-11-10T08:08:18.261Z,84.00
2022-11-10T08:11:04.359Z,83.90
2022-11-10T08:13:50.612Z,82.40
2022-11-10T08:16:36.301Z,82.30
2022-11-10T08:19:22.015Z,81.50
2022-11-10T08:22:07.697Z,82.30
2022-11-10T08:24:53.644Z,83.40
2022-11-10T08:27:39.572Z,83.70
2022-11-10T08:30:25.445Z,83.70
2022-11-10T08:33:13.460Z,84.60
2022-11-10T08:36:02.173Z,84.70
2022-11-10T08:38:47.979Z,83.00
2022-11-10T08:41:33.946Z,81.80
2022-11-10T08:44:21.025Z,81.50
2022-11-10T08:47:07.469Z,81.20
2022-11-10T08:49:53.512Z,81.00
2022-11-10T08:52:39.383Z,79.30
2022-11-10T08:55:25.337Z,77.90
2022-11-10T08:58:16.114Z,78.00
2022-11-10T09:01:04.080Z,78.20
2022-11-10T09:03:50.294Z,76.80
2022-11-10T09:06:36.148Z,74.60
2022-11-10T09:12:23.920Z,74.20
2022-11-10T09:15:11.761Z,75.30
2022-11-10T09:18:01.858Z,74.60
2022-11-10T09:20:47.982Z,73.70
2022-11-10T09:23:34.007Z,74.30
2022-11-10T09:26:20.709Z,70.70
2022-11-10T09:29:06.553Z,72.60
2022-11-10T09:31:52.415Z,72.10
2022-11-10T09:34:38.434Z,70.30
2022-11-10T09:37:24.468Z,69.00
2022-11-10T09:40:22.217Z,67.10
2022-11-10T09:43:17.746Z,63.80
2022-11-10T09:46:14.372Z,62.90
2022-11-10T09:49:09.998Z,58.70
2022-11-10T09:51:59.457Z,58.00
2022-11-10T09:55:07.357Z,55.80
2022-11-10T09:57:56.797Z,50.10
2022-11-10T10:00:54.108Z,48.60
2022-11-10T10:03:46.417Z,47.50
2022-11-10T10:06:57.055Z,44.90
2022-11-10T10:10:10.824Z,45.00
2022-11-10T10:13:24.904Z,45.80
2022-11-10T10:16:12.384Z,45.80
2022-11-10T10:19:13.171Z,49.40
2022-11-10T10:22:35.954Z,50.40
2022-11-10T10:29:44.747Z,47.80
2022-11-10T10:32:31.845Z,47.30
2022-11-10T10:35:19.211Z,47.70
2022-11-10T10:38:12.330Z,45.90
2022-11-10T10:41:04.230Z,46.90
2022-11-10T10:43:52.216Z,46.70
2022-11-10T10:46:56.181Z,48.20
2022-11-10T10:49:41.836Z,49.20
2022-11-10T10:52:28.047Z,51.20
2022-11-10T10:55:14.315Z,53.00
2022-11-10T10:58:07.894Z,54.50
2022-11-10T11:01:07.828Z,58.20
2022-11-10T11:03:53.875Z,56.30
2022-11-10T11:06:39.880Z,56.20
2022-11-10T11:09:29.531Z,57.70
2022-11-10T11:12:28.449Z,59.20
2022-11-10T11:15:29.967Z,57.80
2022-11-10T11:18:20.787Z,58.90
2022-11-10T11:25:39.571Z,60.20
2022-11-10T11:28:44.981Z,58.70
2022-11-10T11:31:43.040Z,58.80
2022-11-10T11:34:43.448Z,59.50
2022-11-10T11:38:08.030Z,59.00
2022-11-10T11:41:30.186Z,59.30
2022-11-10T11:44:46.094Z,59.00
2022-11-10T11:47:46.224Z,61.90
2022-11-10T11:50:58.317Z,60.90
2022-11-10T11:53:47.061Z,60.40
2022-11-10T11:56:43.514Z,59.70
2022-11-10T11:59:41.198Z,59.80
2022-11-10T12:02:57.113Z,61.10
2022-11-10T12:05:45.626Z,60.20
2022-11-10T12:08:50.366Z,60.30
2022-11-10T12:12:01.027Z,58.70
2022-11-10T12:14:54.002Z,56.90
2022-11-10T12:18:41.229Z,57.40
2022-11-10T12:21:41.537Z,57.50
2022-11-10T12:24:46.318Z,58.70
2022-11-10T12:27:49.970Z,58.90
2022-11-10T12:30:41.715Z,56.30
2022-11-10T12:33:46.185Z,57.20
2022-11-10T12:36:33.100Z,56.40
2022-11-10T12:39:26.092Z,57.20
2022-11-10T12:42:17.505Z,57.80
2022-11-10T12:45:08.176Z,58.10
2022-11-10T12:47:55.470Z,59.60
2022-11-10T12:51:04.482Z,57.60
2022-11-10T12:53:51.236Z,56.50
2022-11-10T12:56:53.582Z,57.20
2022-11-10T12:59:51.919Z,56.60
2022-11-10T13:02:45.922Z,57.20
2022-11-10T13:05:38.062Z,57.70
2022-11-10T13:08:28.092Z,58.30
2022-11-10T13:11:13.986Z,58.20
2022-11-10T13:14:03.133Z,57.60
2022-11-10T13:16:54.488Z,57.10
2022-11-10T13:19:40.757Z,56.20
2022-11-10T13:22:34.593Z,57.60
2022-11-10T13:25:38.502Z,58.90
2022-11-10T13:28:49.356Z,57.50
2022-11-10T13:31:39.747Z,56.60
2022-11-10T13:34:34.676Z,54.60
2022-11-10T13:37:35.984Z,54.50
2022-11-10T13:40:34.768Z,54.20
2022-11-10T13:43:26.142Z,53.50
2022-11-10T13:46:12.310Z,54.00
2022-11-10T13:49:22.855Z,54.10
2022-11-10T13:52:36.367Z,53.10
2022-11-10T13:55:25.108Z,54.30
2022-11-10T13:58:18.891Z,54.40
2022-11-10T14:01:17.347Z,53.00
2022-11-10T14:04:05.077Z,53.30
2022-11-10T14:06:55.932Z,55.50
2022-11-10T14:09:46.681Z,55.60
2022-11-10T14:12:41.646Z,57.30
2022-11-10T14:15:49.780Z,57.40
2022-11-10T14:19:15.940Z,58.70
2022-11-10T14:22:11.982Z,59.00
2022-11-10T14:25:35.322Z,59.30
2022-11-10T14:28:27.647Z,60.00
2022-11-10T14:31:23.513Z,60.50
2022-11-10T14:34:15.287Z,61.40
2022-11-10T14:37:03.767Z,62.60
2022-11-10T14:39:54.048Z,62.90
2022-11-10T14:42:40.119Z,64.00
2022-11-10T14:45:28.241Z,66.60
2022-11-10T14:48:19.977Z,68.40
2022-11-10T14:51:09.302Z,71.10
2022-11-10T14:53:57.335Z,72.50
2022-11-10T14:56:43.377Z,73.00
2022-11-10T14:59:29.211Z,73.40
2022-11-10T15:02:18.904Z,72.10
2022-11-10T15:05:06.826Z,70.90
2022-11-10T15:07:58.257Z,72.00
2022-11-10T15:10:50.854Z,74.90
2022-11-10T15:13:40.138Z,75.70
2022-11-10T15:16:28.658Z,77.10
2022-11-10T15:19:32.432Z,77.60
2022-11-10T15:22:21.283Z,77.80
2022-11-10T15:25:18.747Z,76.90
2022-11-10T15:28:37.108Z,76.40
2022-11-10T15:31:30.131Z,76.40
2022-11-10T15:34:49.066Z,77.20
2022-11-10T15:37:36.019Z,77.90
2022-11-10T15:40:35.029Z,78.10
2022-11-10T15:43:24.851Z,78.10
2022-11-10T15:46:22.221Z,79.00
2022-11-10T15:49:19.484Z,79.50
2022-11-10T15:52:19.006Z,79.70
2022-11-10T15:55:06.238Z,80.50
2022-11-10T15:57:52.062Z,80.60
2022-11-10T16:00:42.272Z,80.90
2022-11-10T16:03:28.560Z,81.10
2022-11-10T16:06:16.460Z,81.80
2022-11-10T16:09:02.384Z,81.50
2022-11-10T16:11:48.648Z,82.30
2022-11-10T16:14:35.611Z,81.80
2022-11-10T16:17:21.621Z,81.50
2022-11-10T16:20:15.168Z,81.00
2022-11-10T16:23:02.741Z,81.10
2022-11-10T16:25:51.721Z,81.00
2022-11-10T16:28:37.474Z,80.60
2022-11-10T16:31:23.833Z,80.70
2022-11-10T16:34:14.062Z,81.90
2022-11-10T16:37:01.001Z,82.90
2022-11-10T16:39:46.727Z,82.70
2022-11-10T16:42:32.688Z,82.30
2022-11-10T16:45:21.688Z,82.40
2022-11-10T16:48:08.050Z,82.20
2022-11-10T16:50:56.159Z,80.10
2022-11-10T16:53:42.573Z,82.90
2022-11-10T16:56:28.536Z,85.00
2022-11-10T16:59:14.299Z,85.70
2022-11-10T17:02:00.153Z,85.60
2022-11-10T17:04:45.772Z,87.80
2022-11-10T17:07:34.026Z,90.30
2022-11-10T17:10:21.388Z,90.00
2022-11-10T17:13:11.552Z,89.50
2022-11-10T17:16:15.952Z,89.90
2022-11-10T17:19:04.193Z,88.90
2022-11-10T17:21:54.231Z,87.70
2022-11-10T17:24:40.109Z,86.60
2022-11-10T17:27:26.850Z,86.80
2022-11-10T17:30:14.102Z,86.90
2022-11-10T17:33:05.133Z,86.20
2022-11-10T17:35:53.340Z,85.70
2022-11-10T17:38:41.029Z,84.50
2022-11-10T17:41:26.767Z,84.10
2022-11-10T17:44:14.615Z,85.00
2022-11-10T17:47:00.513Z,87.30
2022-11-10T17:49:46.587Z,87.70
2022-11-10T17:52:32.467Z,87.80
2022-11-10T17:55:29.755Z,87.20
2022-11-10T17:58:18.775Z,87.60
2022-11-10T18:01:14.289Z,87.80
2022-11-10T18:04:00.667Z,87.20
2022-11-10T18:06:46.646Z,86.40
2022-11-10T18:09:33.165Z,86.00
2022-11-10T18:12:21.761Z,83.10
2022-11-10T18:15:17.254Z,85.30
2022-11-10T18:18:03.547Z,85.10
2022-11-10T18:20:49.522Z,86.60
2022-11-10T18:23:36.126Z,87.10
2022-11-10T18:26:21.685Z,87.50
2022-11-10T18:29:07.616Z,87.90
2022-11-10T18:31:53.684Z,87.20
2022-11-10T18:34:39.472Z,87.40
2022-11-10T18:37:25.229Z,87.10
2022-11-10T18:40:11.896Z,87.50
2022-11-10T18:43:02.988Z,86.90
2022-11-10T18:45:56.825Z,85.90
2022-11-10T18:48:42.680Z,86.50
2022-11-10T18:51:29.138Z,87.20
2022-11-10T18:54:14.992Z,86.90
2022-11-10T18:57:00.924Z,90.10
2022-11-10T18:59:46.891Z,90.70
2022-11-10T19:02:32.581Z,90.20
2022-11-10T19:05:18.380Z,89.30
2022-11-10T19:08:04.623Z,87.70
2022-11-10T19:10:50.510Z,88.20
2022-11-10T19:13:37.393Z,88.30
2022-11-10T19:16:23.251Z,88.20
2022-11-10T19:19:10.431Z,88.10
2022-11-10T19:21:56.151Z,86.50
2022-11-10T19:25:00.692Z,86.40
2022-11-10T19:27:47.330Z,87.70
2022-11-10T19:30:33.505Z,88.00
2022-11-10T19:33:19.743Z,87.60
2022-11-10T19:36:09.213Z,86.10
2022-11-10T19:38:56.053Z,87.50
2022-11-10T19:41:42.166Z,88.30
2022-11-10T19:44:28.205Z,88.70
2022-11-10T19:47:13.857Z,87.80
2022-11-10T19:49:59.620Z,86.80
2022-11-10T19:52:45.474Z,88.20
2022-11-10T19:55:34.833Z,89.80
2022-11-10T19:58:21.268Z,90.10
2022-11-10T20:01:09.079Z,88.30
2022-11-10T20:03:55.262Z,88.80
2022-11-10T20:06:41.171Z,89.20
2022-11-10T20:09:27.079Z,89.00
2022-11-10T20:12:13.260Z,88.00
2022-11-10T20:14:59.028Z,87.90
2022-11-10T20:17:44.827Z,88.30
2022-11-10T20:20:30.889Z,88.80
2022-11-10T20:23:17.025Z,88.90
2022-11-10T20:26:07.191Z,87.60
2022-11-10T20:28:53.646Z,87.90
2022-11-10T20:31:39.709Z,89.10
2022-11-10T20:34:25.572Z,89.70
2022-11-10T20:37:11.624Z,89.40
2022-11-10T20:39:57.704Z,89.00
2022-11-10T20:42:43.693Z,89.30
2022-11-10T20:45:29.747Z,88.00
2022-11-10T20:48:15.846Z,88.60
2022-11-10T20:51:02.043Z,88.60
2022-11-10T20:53:49.029Z,88.40
2022-11-10T20:56:34.903Z,88.00
2022-11-10T20:59:21.051Z,88.70
2022-11-10T21:02:07.634Z,90.80
2022-11-10T21:04:53.319Z,91.70
2022-11-10T21:07:39.414Z,91.90
2022-11-10T21:10:25.266Z,90.10
2022-11-10T21:13:11.348Z,90.20
2022-11-10T21:16:00.599Z,90.20
2022-11-10T21:18:46.346Z,88.40
2022-11-10T21:21:35.120Z,90.90
2022-11-10T21:24:21.182Z,92.20
2022-11-10T21:27:09.671Z,92.50
2022-11-10T21:29:56.091Z,92.60
2022-11-10T21:32:42.048Z,91.50
2022-11-10T21:35:27.857Z,90.60
2022-11-10T21:38:14.205Z,92.50
2022-11-10T21:41:00.178Z,91.20
2022-11-10T21:43:46.308Z,89.70
2022-11-10T21:46:32.417Z,90.40
2022-11-10T21:49:18.118Z,90.50
2022-11-10T21:52:03.733Z,92.70
2022-11-10T21:54:49.448Z,90.10
2022-11-10T21:57:36.295Z,92.10
2022-11-10T22:00:22.330Z,92.40
2022-11-10T22:03:08.244Z,92.50
2022-11-10T22:05:54.040Z,93.30
2022-11-10T22:08:41.250Z,93.40
2022-11-10T22:11:45.395Z,91.90
2022-11-10T22:14:50.118Z,89.90
2022-11-10T22:17:54.885Z,92.00
2022-11-10T22:20:40.908Z,91.90
2022-11-10T22:23:53.233Z,92.80
2022-11-10T22:26:38.990Z,92.20
2022-11-10T22:29:31.234Z,91.80
2022-11-10T22:32:17.575Z,91.60
2022-11-10T22:35:03.914Z,90.80
2022-11-10T22:37:50.004Z,89.60
2022-11-10T22:40:55.458Z,88.60
2022-11-10T22:44:00.227Z,89.60
2022-11-10T22:46:51.010Z,90.70
2022-11-10T22:49:36.829Z,90.60
2022-11-10T22:52:22.478Z,90.50
2022-11-10T22:55:08.847Z,90.60
2022-11-10T22:57:54.559Z,91.40
2022-11-10T23:00:40.513Z,91.50
2022-11-10T23:03:26.816Z,90.10
2022-11-10T23:06:13.097Z,90.00
2022-11-10T23:09:00.078Z,89.50
2022-11-10T23:11:45.783Z,90.20
2022-11-10T23:14:31.383Z,89.50
2022-11-10T23:17:17.031Z,90.80
2022-11-10T23:20:03.041Z,92.00
2022-11-10T23:22:49.178Z,93.70
2022-11-10T23:25:35.245Z,93.90
2022-11-10T23:28:20.976Z,94.20
2022-11-10T23:31:28.685Z,93.00
2022-11-10T23:34:14.917Z,89.50
2022-11-10T23:37:00.737Z,89.50
2022-11-10T23:39:46.556Z,91.20
2022-11-10T23:42:33.185Z,90.20
2022-11-10T23:45:19.080Z,90.70
2022-11-10T23:48:06.997Z,90.00
2022-11-10T23:50:53.140Z,89.90
2022-11-10T23:53:39.037Z,90.80
2022-11-10T23:56:24.927Z,91.60
2022-11-10T23:59:11.046Z,91.20
